virtualACA

Welcome To Calgary International Airport CYYC

Hub Roster

Pilot Domicile Rank
Ethan Title - ACA1641CanadaChief Pilot
Graham Dawson - ACA2317CanadaChief Pilot
Roger Godden - ACA2339CanadaChief Pilot
Nemeth Istvan - ACA3257HungaryNew Hire
Burt Dykeman - ACA3267CanadaSecond Officer
Ross Mayl - ACA3271United KingdomNew Hire
Rashaido Brown - ACA3288JamaicaSecond Officer

Current Vatsim Weather


CYYC 231100Z 33016G22KT 10SM VCSH FEW035 SCT120 01/M03 A3017 RMK SC1AC2 SH SSE SLP256
Calgary International Airport